createdAt,value
2022-10-17T00:02:12.759Z,8.30
2022-10-17T00:04:39.207Z,9.48
2022-10-17T00:07:05.595Z,10.30
2022-10-17T00:09:32.101Z,12.18
2022-10-17T00:11:58.657Z,14.40
2022-10-17T00:14:25.062Z,10.37
2022-10-17T00:16:51.431Z,10.90
2022-10-17T00:19:17.834Z,9.95
2022-10-17T00:21:44.274Z,9.95
2022-10-17T00:24:10.679Z,14.63
2022-10-17T00:26:37.054Z,15.68
2022-10-17T00:29:03.602Z,14.40
2022-10-17T00:31:30.026Z,15.03
2022-10-17T00:33:56.429Z,14.73
2022-10-17T00:36:25.368Z,19.95
2022-10-17T00:38:57.459Z,13.85
2022-10-17T00:41:27.313Z,21.17
2022-10-17T00:44:05.715Z,19.60
2022-10-17T00:46:38.510Z,18.02
2022-10-17T00:49:08.290Z,18.15
2022-10-17T00:51:41.583Z,17.80
2022-10-17T00:54:09.998Z,23.02
2022-10-17T00:56:36.929Z,20.95
2022-10-17T00:59:03.810Z,20.30
2022-10-17T01:01:30.603Z,21.40
2022-10-17T01:03:57.047Z,24.13
2022-10-17T01:06:23.487Z,23.33
2022-10-17T01:08:49.969Z,18.20
2022-10-17T01:11:28.185Z,24.37
2022-10-17T01:14:09.097Z,22.25
2022-10-17T01:17:08.507Z,25.80
2022-10-17T01:20:10.027Z,26.25
2022-10-17T01:22:42.334Z,28.58
2022-10-17T01:25:27.678Z,32.78
2022-10-17T01:28:11.566Z,33.35
2022-10-17T01:30:46.938Z,30.48
2022-10-17T01:33:36.447Z,28.40
2022-10-17T01:36:12.843Z,29.42
2022-10-17T01:38:59.500Z,28.13
2022-10-17T01:41:42.238Z,29.88
2022-10-17T01:44:14.876Z,32.67
2022-10-17T01:46:54.382Z,30.92
2022-10-17T01:49:26.207Z,30.02
2022-10-17T01:52:02.979Z,34.08
2022-10-17T01:54:51.650Z,33.40
2022-10-17T01:57:29.026Z,34.63
2022-10-17T01:59:57.024Z,27.25
2022-10-17T02:02:25.843Z,29.35
2022-10-17T02:04:54.001Z,31.77
2022-10-17T02:07:20.458Z,30.25
2022-10-17T02:09:46.895Z,38.05
2022-10-17T02:12:24.048Z,29.97
2022-10-17T02:15:20.877Z,30.83
2022-10-17T02:20:16.250Z,36.50
2022-10-17T02:22:52.020Z,36.00
2022-10-17T02:25:31.311Z,34.20
2022-10-17T02:28:22.676Z,32.60
2022-10-17T02:30:56.185Z,36.15
2022-10-17T02:33:30.939Z,33.88
2022-10-17T02:36:03.157Z,41.17
2022-10-17T02:38:31.395Z,36.40
2022-10-17T02:40:57.975Z,38.28
2022-10-17T02:43:24.832Z,38.13
2022-10-17T02:45:52.467Z,37.30
2022-10-17T02:48:35.639Z,36.38
2022-10-17T02:51:20.297Z,37.75
2022-10-17T02:53:55.292Z,35.50
2022-10-17T02:56:22.388Z,37.25
2022-10-17T02:58:56.082Z,34.33
2022-10-17T03:01:23.113Z,35.83
2022-10-17T03:03:49.609Z,34.47
2022-10-17T03:06:16.135Z,34.40
2022-10-17T03:08:42.655Z,33.40
2022-10-17T03:11:09.118Z,32.67
2022-10-17T03:13:38.951Z,38.23
2022-10-17T03:16:06.457Z,33.53
2022-10-17T03:18:32.830Z,35.63
2022-10-17T03:20:59.234Z,32.83
2022-10-17T03:23:25.634Z,34.83
2022-10-17T03:25:52.004Z,37.08
2022-10-17T03:28:18.447Z,34.10
2022-10-17T03:30:44.798Z,34.80
2022-10-17T03:33:11.245Z,32.22
2022-10-17T03:35:40.309Z,35.05
2022-10-17T03:38:06.778Z,37.97
2022-10-17T03:40:33.189Z,37.13
2022-10-17T03:42:59.593Z,36.38
2022-10-17T03:45:25.943Z,43.30
2022-10-17T03:47:52.343Z,41.25
2022-10-17T03:50:18.705Z,40.47
2022-10-17T03:52:49.153Z,37.95
2022-10-17T03:55:16.320Z,35.95
2022-10-17T03:57:45.444Z,37.15
2022-10-17T04:00:13.092Z,38.83
2022-10-17T04:02:39.687Z,37.92
2022-10-17T04:05:06.751Z,35.87
2022-10-17T04:07:33.154Z,35.88
2022-10-17T04:09:59.576Z,37.55
2022-10-17T04:12:25.983Z,38.92
2022-10-17T04:14:52.447Z,37.00
2022-10-17T04:17:18.914Z,38.03
2022-10-17T04:19:45.416Z,37.72
2022-10-17T04:22:11.825Z,40.83
2022-10-17T04:24:38.224Z,36.22
2022-10-17T04:27:04.697Z,36.40
2022-10-17T04:29:31.196Z,41.87
2022-10-17T04:31:57.685Z,39.25
2022-10-17T04:34:24.073Z,43.17
2022-10-17T04:36:51.891Z,42.17
2022-10-17T04:39:18.568Z,38.60
2022-10-17T04:41:45.003Z,33.67
2022-10-17T04:44:11.550Z,42.10
2022-10-17T04:46:38.099Z,39.73
2022-10-17T04:49:04.817Z,39.97
2022-10-17T04:51:31.249Z,43.17
2022-10-17T04:53:57.672Z,45.72
2022-10-17T04:56:24.923Z,46.35
2022-10-17T04:58:52.310Z,40.35
2022-10-17T05:03:47.214Z,46.50
2022-10-17T05:06:16.437Z,43.47
2022-10-17T05:08:42.944Z,41.45
2022-10-17T05:11:38.897Z,42.63
2022-10-17T05:14:05.510Z,44.53
2022-10-17T05:16:31.974Z,46.43
2022-10-17T05:18:59.142Z,46.30
2022-10-17T05:21:27.256Z,41.88
2022-10-17T05:23:53.840Z,44.40
2022-10-17T05:26:21.021Z,47.53
2022-10-17T05:28:47.587Z,47.33
2022-10-17T05:31:14.489Z,48.13
2022-10-17T05:33:41.146Z,47.75
2022-10-17T05:36:08.427Z,46.05
2022-10-17T05:38:35.016Z,46.28
2022-10-17T05:41:05.960Z,47.08
2022-10-17T05:43:33.432Z,47.72
2022-10-17T05:48:28.975Z,48.13
2022-10-17T05:50:59.979Z,47.38
2022-10-17T05:53:26.771Z,46.65
2022-10-17T05:56:00.631Z,46.90
2022-10-17T06:03:40.586Z,49.53
2022-10-17T06:06:12.069Z,52.20
2022-10-17T06:08:38.637Z,43.50
2022-10-17T06:11:09.122Z,44.87
2022-10-17T06:13:37.057Z,45.97
2022-10-17T06:16:03.532Z,47.55
2022-10-17T06:18:29.986Z,44.47
2022-10-17T06:21:03.477Z,45.58
2022-10-17T06:23:30.211Z,41.88
2022-10-17T06:26:01.815Z,41.30
2022-10-17T06:28:28.748Z,42.55
2022-10-17T06:30:55.177Z,41.15
2022-10-17T06:33:23.239Z,39.55
2022-10-17T06:35:54.507Z,39.85
2022-10-17T06:38:21.439Z,36.63
2022-10-17T06:40:48.005Z,39.60
2022-10-17T06:43:14.652Z,42.63
2022-10-17T06:45:41.772Z,41.58
2022-10-17T06:48:08.459Z,35.85
2022-10-17T06:50:35.313Z,37.03
2022-10-17T06:53:01.712Z,36.90
2022-10-17T06:55:28.067Z,34.93
2022-10-17T06:57:55.825Z,32.55
2022-10-17T07:00:23.367Z,36.60
2022-10-17T07:02:49.843Z,34.83
2022-10-17T07:05:16.346Z,32.47
2022-10-17T07:07:44.785Z,29.70
2022-10-17T07:10:12.837Z,29.50
2022-10-17T07:12:39.342Z,30.23
2022-10-17T07:15:06.140Z,32.57
2022-10-17T07:17:32.655Z,31.33
2022-10-17T07:19:59.392Z,26.15
2022-10-17T07:22:26.010Z,26.48
2022-10-17T07:24:52.455Z,26.92
2022-10-17T07:27:18.864Z,28.90
2022-10-17T07:29:45.249Z,26.70
2022-10-17T07:32:11.615Z,26.67
2022-10-17T07:34:38.094Z,25.73
2022-10-17T07:37:06.894Z,25.00
2022-10-17T07:39:35.554Z,27.92
2022-10-17T07:42:02.038Z,24.27
2022-10-17T07:44:28.473Z,29.08
2022-10-17T07:46:54.917Z,24.40
2022-10-17T07:49:21.265Z,23.85
2022-10-17T07:51:48.119Z,22.80
2022-10-17T07:54:14.515Z,22.67
2022-10-17T07:56:40.953Z,24.48
2022-10-17T07:59:09.418Z,20.35
2022-10-17T08:01:36.936Z,22.33
2022-10-17T08:06:29.782Z,23.17
2022-10-17T08:08:57.847Z,23.30
2022-10-17T08:11:25.333Z,21.90
2022-10-17T08:13:51.813Z,22.60
2022-10-17T08:16:18.299Z,23.20
2022-10-17T08:18:44.855Z,23.77
2022-10-17T08:21:13.446Z,24.13
2022-10-17T08:23:40.244Z,20.35
2022-10-17T08:26:10.505Z,24.35
2022-10-17T08:28:38.614Z,20.27
2022-10-17T08:31:13.593Z,22.30
2022-10-17T08:33:40.916Z,22.25
2022-10-17T08:36:08.588Z,20.95
2022-10-17T08:38:36.932Z,21.15
2022-10-17T08:41:11.698Z,22.85
2022-10-17T08:44:03.657Z,22.23
2022-10-17T08:46:36.513Z,25.55
2022-10-17T08:49:07.673Z,22.42
2022-10-17T08:51:53.112Z,21.38
2022-10-17T08:54:40.691Z,23.33
2022-10-17T08:57:13.042Z,22.63
2022-10-17T08:59:39.585Z,22.50
2022-10-17T09:02:37.016Z,21.58
2022-10-17T09:05:49.276Z,22.05
2022-10-17T09:08:31.681Z,22.73
2022-10-17T09:11:25.066Z,21.08
2022-10-17T09:14:09.829Z,20.23
2022-10-17T09:16:49.933Z,22.02
2022-10-17T09:19:36.754Z,22.77
2022-10-17T09:24:42.541Z,22.00
2022-10-17T09:27:22.443Z,20.03
2022-10-17T09:29:50.875Z,20.67
2022-10-17T09:32:21.959Z,18.45
2022-10-17T09:34:48.813Z,21.70
2022-10-17T09:37:17.095Z,18.60
2022-10-17T09:39:44.625Z,17.95
2022-10-17T09:42:19.314Z,17.95
2022-10-17T09:44:54.595Z,19.35
2022-10-17T09:47:28.357Z,17.33
2022-10-17T09:49:55.043Z,17.13
2022-10-17T09:52:35.275Z,19.25
2022-10-17T09:55:04.396Z,17.58
2022-10-17T09:57:52.644Z,16.83
2022-10-17T10:00:28.168Z,19.98
2022-10-17T10:03:12.914Z,14.63
2022-10-17T10:05:40.162Z,16.48
2022-10-17T10:13:12.909Z,15.52
2022-10-17T10:15:42.376Z,15.15
2022-10-17T10:18:35.096Z,16.70
2022-10-17T10:21:17.313Z,14.73
2022-10-17T10:23:45.544Z,15.63
2022-10-17T10:26:21.025Z,15.50
2022-10-17T10:29:20.881Z,18.48
2022-10-17T10:31:47.622Z,14.27
2022-10-17T10:34:20.264Z,15.65
2022-10-17T10:36:54.752Z,17.35
2022-10-17T10:39:29.471Z,16.55
2022-10-17T10:41:55.955Z,16.77
2022-10-17T10:44:26.221Z,17.10
2022-10-17T10:47:15.070Z,16.65
2022-10-17T10:49:42.100Z,20.33
2022-10-17T10:52:15.919Z,17.58
2022-10-17T10:54:51.354Z,17.20
2022-10-17T10:57:21.148Z,18.98
2022-10-17T10:59:58.335Z,19.30
2022-10-17T11:02:36.857Z,19.02
2022-10-17T11:05:44.153Z,17.77
2022-10-17T11:08:14.088Z,17.05
2022-10-17T11:11:19.772Z,16.65
2022-10-17T11:13:58.306Z,19.95
2022-10-17T11:16:36.811Z,16.98
2022-10-17T11:19:28.421Z,15.77
2022-10-17T11:22:02.541Z,17.23
2022-10-17T11:24:35.950Z,15.27
2022-10-17T11:27:05.260Z,16.45
2022-10-17T11:29:34.012Z,16.75
2022-10-17T11:32:06.482Z,17.85
2022-10-17T11:34:39.289Z,17.40
2022-10-17T11:37:13.762Z,20.23
2022-10-17T11:39:50.322Z,15.88
2022-10-17T11:42:31.654Z,15.60
2022-10-17T11:45:08.602Z,17.33
2022-10-17T11:47:40.689Z,15.38
2022-10-17T11:53:21.783Z,17.35
2022-10-17T11:55:50.467Z,16.00
2022-10-17T11:58:35.843Z,16.23
2022-10-17T12:01:23.767Z,17.10
2022-10-17T12:04:11.499Z,17.55
2022-10-17T12:07:02.072Z,16.15
2022-10-17T12:09:46.043Z,20.58
2022-10-17T12:12:25.747Z,16.05
2022-10-17T12:14:52.707Z,15.98
2022-10-17T12:17:32.435Z,18.13
2022-10-17T12:20:21.236Z,14.75
2022-10-17T12:22:48.784Z,16.95
2022-10-17T12:27:48.223Z,17.45
2022-10-17T12:30:23.931Z,19.35
2022-10-17T12:33:25.680Z,17.05
2022-10-17T12:36:17.692Z,18.35
2022-10-17T12:38:50.264Z,20.33
2022-10-17T12:41:17.341Z,19.25
2022-10-17T12:43:52.570Z,16.98
2022-10-17T12:46:42.918Z,14.57
2022-10-17T12:49:43.448Z,18.02
2022-10-17T12:52:15.978Z,16.02
2022-10-17T12:55:00.322Z,19.17
2022-10-17T12:57:33.784Z,16.02
2022-10-17T13:00:05.228Z,20.40
2022-10-17T13:02:33.041Z,14.38
2022-10-17T13:05:19.258Z,14.50
2022-10-17T13:07:49.216Z,14.70
2022-10-17T13:13:11.586Z,17.30
2022-10-17T13:15:37.997Z,19.15
2022-10-17T13:18:04.662Z,16.85
2022-10-17T13:20:32.065Z,15.90
2022-10-17T13:22:59.464Z,14.85
2022-10-17T13:25:27.202Z,15.73
2022-10-17T13:28:05.721Z,15.68
2022-10-17T13:30:34.973Z,17.73
2022-10-17T13:33:02.161Z,15.18
2022-10-17T13:38:26.066Z,15.80
2022-10-17T13:41:01.374Z,18.27
2022-10-17T13:43:32.886Z,15.82
2022-10-17T13:46:19.303Z,17.48
2022-10-17T13:48:50.546Z,16.15
2022-10-17T13:51:17.036Z,16.05
2022-10-17T13:53:44.463Z,17.50
2022-10-17T13:56:28.324Z,14.85
2022-10-17T13:59:03.480Z,18.15
2022-10-17T14:01:30.899Z,15.90
2022-10-17T14:04:09.029Z,16.98
2022-10-17T14:06:45.162Z,15.25
2022-10-17T14:09:26.803Z,15.07
2022-10-17T14:12:08.533Z,13.77
2022-10-17T14:14:58.099Z,14.20
2022-10-17T14:17:27.648Z,16.08
2022-10-17T14:20:14.194Z,15.95
2022-10-17T14:22:50.430Z,17.20
2022-10-17T14:25:35.297Z,16.02
2022-10-17T14:28:22.510Z,15.95
2022-10-17T14:30:57.315Z,17.63
2022-10-17T14:33:29.843Z,16.05
2022-10-17T14:35:58.432Z,18.23
2022-10-17T14:38:25.604Z,16.05
2022-10-17T14:41:41.466Z,16.23
2022-10-17T14:44:23.558Z,17.40
2022-10-17T14:46:54.551Z,16.90
2022-10-17T14:49:36.104Z,19.85
2022-10-17T14:52:18.774Z,20.80
2022-10-17T14:54:49.659Z,18.20
2022-10-17T14:57:22.184Z,18.92
2022-10-17T14:59:56.075Z,18.58
2022-10-17T15:02:24.576Z,16.95
2022-10-17T15:04:51.468Z,20.02
2022-10-17T15:07:18.392Z,18.38
2022-10-17T15:09:47.239Z,21.58
2022-10-17T15:12:16.686Z,18.35
2022-10-17T15:14:44.140Z,19.77
2022-10-17T15:17:15.317Z,18.33
2022-10-17T15:19:41.812Z,20.42
2022-10-17T15:22:08.226Z,19.58
2022-10-17T15:24:34.640Z,18.43
2022-10-17T15:27:01.094Z,22.23
2022-10-17T15:29:28.295Z,22.02
2022-10-17T15:34:21.086Z,21.88
2022-10-17T15:36:51.879Z,19.90
2022-10-17T15:39:18.292Z,20.92
2022-10-17T15:41:44.857Z,21.13
2022-10-17T15:44:11.358Z,22.42
2022-10-17T15:46:40.469Z,21.02
2022-10-17T15:49:11.259Z,20.58
2022-10-17T15:51:37.925Z,24.17
2022-10-17T15:54:05.607Z,24.70
2022-10-17T15:56:37.335Z,23.48
2022-10-17T15:59:12.140Z,20.42
2022-10-17T16:01:39.426Z,21.35
2022-10-17T16:06:32.495Z,24.73
2022-10-17T16:08:58.918Z,24.08
2022-10-17T16:11:31.424Z,23.73
2022-10-17T16:14:00.469Z,28.23
2022-10-17T16:16:27.280Z,32.08
2022-10-17T16:18:54.003Z,27.88
2022-10-17T16:21:25.210Z,27.25
2022-10-17T16:23:52.451Z,24.58
2022-10-17T16:26:19.291Z,24.48
2022-10-17T16:28:46.481Z,23.45
2022-10-17T16:33:48.206Z,28.65
2022-10-17T16:36:14.642Z,24.55
2022-10-17T16:38:41.033Z,26.43
2022-10-17T16:41:37.302Z,26.83
2022-10-17T16:44:06.678Z,26.15
2022-10-17T16:46:35.481Z,32.28
2022-10-17T16:49:04.776Z,26.15
2022-10-17T16:51:33.635Z,27.05
2022-10-17T16:54:00.302Z,26.27
2022-10-17T16:56:32.622Z,28.08
2022-10-17T16:59:00.647Z,27.73
2022-10-17T17:01:29.314Z,27.25
2022-10-17T17:03:56.197Z,26.92
2022-10-17T17:06:29.347Z,25.20
2022-10-17T17:08:56.405Z,24.25
2022-10-17T17:11:25.542Z,25.75
2022-10-17T17:13:52.243Z,26.55
2022-10-17T17:16:21.502Z,26.65
2022-10-17T17:18:50.802Z,27.88
2022-10-17T17:21:17.453Z,25.13
2022-10-17T17:23:43.847Z,27.30
2022-10-17T17:26:16.946Z,27.93
2022-10-17T17:28:43.856Z,25.33
2022-10-17T17:31:12.819Z,26.95
2022-10-17T17:33:40.737Z,28.13
2022-10-17T17:36:08.114Z,26.90
2022-10-17T17:43:28.470Z,27.40
2022-10-17T17:45:54.915Z,30.50
2022-10-17T17:48:21.712Z,28.40
2022-10-17T17:50:48.516Z,27.30
2022-10-17T17:53:16.164Z,28.45
2022-10-17T17:55:42.635Z,28.45
2022-10-17T17:58:09.796Z,28.13
2022-10-17T18:00:36.351Z,27.20
2022-10-17T18:03:03.332Z,29.37
2022-10-17T18:05:29.898Z,28.10
2022-10-17T18:07:56.365Z,33.20
2022-10-17T18:10:22.747Z,27.63
2022-10-17T18:12:49.178Z,28.65
2022-10-17T18:15:15.913Z,26.93
2022-10-17T18:17:42.559Z,28.83
2022-10-17T18:20:09.673Z,30.10
2022-10-17T18:22:36.074Z,30.00
2022-10-17T18:25:02.523Z,27.08
2022-10-17T18:27:28.912Z,31.10
2022-10-17T18:29:55.318Z,27.30
2022-10-17T18:32:21.803Z,30.47
2022-10-17T18:34:48.163Z,27.77
2022-10-17T18:37:14.587Z,29.10
2022-10-17T18:39:41.052Z,28.73
2022-10-17T18:42:07.765Z,28.10
2022-10-17T18:44:34.271Z,26.33
2022-10-17T18:47:03.872Z,30.43
2022-10-17T18:49:31.412Z,24.25
2022-10-17T18:51:59.453Z,26.05
2022-10-17T18:54:25.881Z,26.67
2022-10-17T18:56:54.650Z,30.10
2022-10-17T18:59:21.164Z,28.50
2022-10-17T19:01:48.542Z,29.50
2022-10-17T19:06:43.068Z,30.17
2022-10-17T19:09:11.147Z,31.73
2022-10-17T19:11:38.540Z,27.85
2022-10-17T19:16:37.587Z,28.85
2022-10-17T19:19:06.697Z,29.70
2022-10-17T19:21:34.009Z,31.05
2022-10-17T19:26:30.523Z,32.22
2022-10-17T19:28:57.298Z,31.23
2022-10-17T19:31:27.298Z,32.85
2022-10-17T19:33:55.438Z,35.35
2022-10-17T19:36:26.316Z,33.90
2022-10-17T19:38:56.294Z,30.25
2022-10-17T19:41:23.214Z,33.70
2022-10-17T19:43:50.097Z,32.95
2022-10-17T19:46:19.664Z,32.78
2022-10-17T19:48:47.881Z,31.52
2022-10-17T19:51:15.965Z,34.15
2022-10-17T19:53:42.953Z,31.40
2022-10-17T19:56:11.665Z,33.80
2022-10-17T19:58:45.241Z,35.53
2022-10-17T20:01:23.493Z,32.80
2022-10-17T20:03:50.581Z,32.50
2022-10-17T20:06:17.637Z,36.10
2022-10-17T20:08:44.395Z,33.30
2022-10-17T20:11:15.314Z,31.35
2022-10-17T20:13:42.236Z,33.40
2022-10-17T20:16:12.124Z,37.05
2022-10-17T20:18:40.638Z,34.45
2022-10-17T20:21:10.977Z,33.97
2022-10-17T20:23:38.532Z,33.65
2022-10-17T20:26:25.346Z,35.58
2022-10-17T20:28:53.081Z,33.38
2022-10-17T20:31:20.435Z,38.80
2022-10-17T20:33:47.024Z,34.78
2022-10-17T20:36:14.521Z,35.00
2022-10-17T20:38:40.901Z,36.47
2022-10-17T20:41:09.384Z,34.90
2022-10-17T20:43:36.768Z,37.78
2022-10-17T20:48:54.124Z,35.88
2022-10-17T20:51:21.311Z,38.55
2022-10-17T20:53:48.773Z,36.58
2022-10-17T20:56:21.481Z,35.90
2022-10-17T20:58:56.480Z,37.85
2022-10-17T21:01:24.158Z,33.45
2022-10-17T21:03:50.790Z,36.15
2022-10-17T21:06:18.019Z,40.17
2022-10-17T21:08:46.078Z,35.33
2022-10-17T21:11:15.290Z,34.88
2022-10-17T21:13:42.192Z,39.42
2022-10-17T21:16:16.941Z,36.22
2022-10-17T21:18:43.737Z,33.42
2022-10-17T21:21:21.995Z,38.45
2022-10-17T21:23:49.751Z,38.08
2022-10-17T21:26:17.696Z,37.17
2022-10-17T21:28:46.047Z,37.08
2022-10-17T21:31:16.191Z,36.60
2022-10-17T21:33:48.802Z,40.65
2022-10-17T21:36:16.808Z,40.45
2022-10-17T21:38:45.197Z,39.22
2022-10-17T21:41:13.967Z,35.30
2022-10-17T21:43:41.578Z,39.83
2022-10-17T21:46:17.027Z,38.28
2022-10-17T21:48:44.460Z,35.60
2022-10-17T21:53:39.020Z,37.83
2022-10-17T21:56:08.012Z,35.78
2022-10-17T21:58:34.488Z,36.97
2022-10-17T22:01:11.028Z,37.40
2022-10-17T22:03:42.747Z,34.97
2022-10-17T22:09:00.694Z,38.22
2022-10-17T22:11:30.652Z,38.45
2022-10-17T22:14:10.838Z,37.15
2022-10-17T22:16:38.158Z,38.28
2022-10-17T22:19:06.625Z,35.97
2022-10-17T22:21:35.215Z,37.58
2022-10-17T22:24:06.139Z,37.90
2022-10-17T22:26:34.123Z,37.03
2022-10-17T22:29:01.028Z,39.20
2022-10-17T22:31:27.668Z,41.40
2022-10-17T22:33:54.187Z,34.53
2022-10-17T22:36:20.772Z,40.38
2022-10-17T22:38:47.478Z,37.92
2022-10-17T22:41:14.002Z,37.70
2022-10-17T22:43:40.395Z,39.67
2022-10-17T22:46:07.862Z,37.83
2022-10-17T22:51:01.361Z,38.00
2022-10-17T22:53:29.526Z,37.85
2022-10-17T22:56:01.326Z,33.08
2022-10-17T22:58:29.254Z,36.85
2022-10-17T23:00:56.159Z,40.30
2022-10-17T23:03:23.738Z,41.33
2022-10-17T23:05:51.007Z,36.05
2022-10-17T23:08:18.263Z,36.40
2022-10-17T23:10:45.849Z,36.58
2022-10-17T23:13:13.127Z,39.30
2022-10-17T23:15:39.898Z,34.67
2022-10-17T23:18:06.717Z,40.15
2022-10-17T23:20:33.098Z,32.72
2022-10-17T23:22:59.520Z,35.45
2022-10-17T23:25:26.302Z,36.83
2022-10-17T23:27:53.211Z,36.10
2022-10-17T23:30:19.655Z,38.95
2022-10-17T23:32:46.082Z,36.90
2022-10-17T23:35:12.510Z,36.92
2022-10-17T23:37:38.903Z,33.97
2022-10-17T23:40:06.405Z,42.67
2022-10-17T23:42:32.767Z,37.33
2022-10-17T23:44:59.127Z,36.33
2022-10-17T23:47:25.511Z,35.28
2022-10-17T23:49:51.978Z,33.63
2022-10-17T23:52:18.375Z,38.45
2022-10-17T23:54:44.840Z,38.05
2022-10-17T23:57:11.273Z,36.00
2022-10-17T23:59:37.654Z,37.95
